Terminal Aerodrome Forecast
Issued by NWS

Home | Current Version | Previous Version | Text Only | Print | Product List | Glossary Off
Versions: 1 2 3 4 5 6 7 8 9 10 11 12 13

230
FTUS42 KMHX 051140
TAFOAJ
TAF
KOAJ 051140Z 0512/0612 33011G20KT P6SM VCSH SCT018 BKN020
     FM051400 33011G20KT P6SM SCT025 BKN040
     FM051630 32011G19KT P6SM SCT040 SCT090
     FM052230 35002KT P6SM SKC
      AMD LTD TO CLD VIS AND WIND=

USA.gov is the U.S. government's official web portal to all federal, state and local government web resources and services.